Brevoort Island, Canada
Current Conditions -  °F | °C
As of 2:00 PM on Monday 26 Jan 2015 (Local Time) from CYFB Reporting Station
Ice Pellets Ice Pellets  
Wind Chill: -61°   Ceiling: Unl
Heat Index: -36°   Visibility: 25mi
Dew Point: -45°   Wind: 10mph
Humidity: 61%   Direction: 320°NW
Pressure: 29.63"   Gusts: NA
Location:  63.5°N, 64.33°W
Report Text: CYFB 261800Z 32009KT 25SM IC FEW050 M38/M43 A2963 RMK SC1 SLP040
Loading
Personal Weather Stations






























Interactive Weather Map New forecast layout! Learn more

10-Day Weather Forecast

Advertisements
Track Severe Weather on mobile